Time;durP1;ratioP1;P1;durP2;ratioP2;P2;SDS_P1;SDS_P2;PMS_P1;PMS_P2;Temp;Humidity;BMP_temperature;BMP_pressure;BME280_temperature;BME280_humidity;BME280_pressure;Samples;Min_cycle;Max_cycle;Signal;HPM_P1;HPM_P2
2023/09/16 00:01:12;;;;;;;0.30;0.30;;;13.00;99.90;;;;;;5111995;28;20355;-74
2023/09/16 00:03:38;;;;;;;0.38;0.38;;;12.90;99.90;;;;;;5109140;28;20054;-74
2023/09/16 00:06:06;;;;;;;0.30;0.30;;;12.90;99.90;;;;;;5110969;28;20082;-74
2023/09/16 00:08:33;;;;;;;0.40;0.40;;;12.80;99.90;;;;;;5111844;28;20494;-74
2023/09/16 00:11:02;;;;;;;0.30;0.30;;;12.70;99.90;;;;;;5107871;28;20090;-75
2023/09/16 00:13:27;;;;;;;0.30;0.30;;;12.60;99.90;;;;;;5103189;28;20058;-74
2023/09/16 00:15:53;;;;;;;0.38;0.38;;;12.60;99.90;;;;;;5111312;28;20150;-75
2023/09/16 00:18:19;;;;;;;;;;;12.50;99.90;;;;;;5111435;28;20043;-74
2023/09/16 00:20:49;;;;;;;0.40;0.40;;;12.50;99.90;;;;;;5111558;28;19930;-74
2023/09/16 00:23:15;;;;;;;0.40;0.40;;;12.40;99.90;;;;;;5108662;28;20532;-74
2023/09/16 00:25:41;;;;;;;0.30;0.30;;;12.40;99.90;;;;;;5111028;28;20050;-74
2023/09/16 00:28:07;;;;;;;0.30;0.30;;;12.30;99.90;;;;;;5110824;28;20044;-74
2023/09/16 00:30:37;;;;;;;0.30;0.30;;;12.20;99.90;;;;;;5110067;28;20073;-74
2023/09/16 00:33:03;;;;;;;0.30;0.30;;;12.20;99.90;;;;;;5111204;28;20051;-74
2023/09/16 00:35:29;;;;;;;;;;;12.20;99.90;;;;;;5107410;28;20509;-74
2023/09/16 00:37:55;;;;;;;0.38;0.38;;;12.10;99.90;;;;;;5110148;28;19968;-74
2023/09/16 00:40:21;;;;;;;0.30;0.30;;;12.10;99.90;;;;;;5109916;28;20382;-74
2023/09/16 00:42:46;;;;;;;0.25;0.25;;;12.10;99.90;;;;;;5110849;28;20043;-74
2023/09/16 00:45:14;;;;;;;0.32;0.32;;;12.00;99.90;;;;;;5110184;28;20047;-74
2023/09/16 00:47:40;;;;;;;0.30;0.30;;;12.00;99.90;;;;;;5106295;28;20043;-74
2023/09/16 00:50:07;;;;;;;;;;;11.90;99.90;;;;;;5110447;28;20058;-74
2023/09/16 00:52:35;;;;;;;0.45;0.45;;;11.90;99.90;;;;;;5110181;28;20256;-74
2023/09/16 00:55:01;;;;;;;0.30;0.30;;;11.90;99.90;;;;;;5109884;28;20083;-74
2023/09/16 00:57:29;;;;;;;0.20;0.20;;;11.90;99.90;;;;;;5111763;28;20047;-74
2023/09/16 00:59:55;;;;;;;0.30;0.30;;;11.80;99.90;;;;;;5105610;28;20070;-74
2023/09/16 01:02:21;;;;;;;0.40;0.40;;;11.80;99.90;;;;;;5111160;28;20079;-74
2023/09/16 01:04:47;;;;;;;;;;;11.70;99.90;;;;;;5110125;28;20055;-74
2023/09/16 01:07:14;;;;;;;0.30;0.30;;;11.70;99.90;;;;;;5109897;28;20536;-74
2023/09/16 01:09:41;;;;;;;0.32;0.32;;;11.60;99.90;;;;;;5109609;28;20055;-74
2023/09/16 01:12:10;;;;;;;0.50;0.50;;;11.60;99.90;;;;;;5107082;28;20126;-74
2023/09/16 01:14:37;;;;;;;0.30;0.30;;;11.60;99.90;;;;;;5106979;28;20857;-74
2023/09/16 01:17:14;;;;;;;0.95;0.95;;;11.60;99.90;;;;;;5108569;28;20126;-74
2023/09/16 01:20:01;;;;;;;0.38;0.38;;;11.60;99.90;;;;;;5110850;28;20413;-74
2023/09/16 01:22:28;;;;;;;0.85;0.85;;;11.60;99.90;;;;;;5101188;28;20044;-74
2023/09/16 01:24:55;;;;;;;0.30;0.30;;;11.60;99.90;;;;;;5108875;28;20405;-73
2023/09/16 01:27:21;;;;;;;0.30;0.30;;;11.50;99.90;;;;;;5109252;28;20061;-73
2023/09/16 01:29:47;;;;;;;;;;;11.50;99.90;;;;;;5110902;28;20127;-73
2023/09/16 01:32:16;;;;;;;0.40;0.40;;;11.50;99.90;;;;;;5091436;28;19953;-73
2023/09/16 01:34:47;;;;;;;1.10;0.50;;;11.50;99.90;;;;;;5109151;28;20043;-73
2023/09/16 01:37:18;;;;;;;0.40;0.40;;;11.40;99.90;;;;;;5107465;28;20506;-73
2023/09/16 01:39:56;;;;;;;0.40;0.40;;;11.40;99.90;;;;;;5109094;28;20070;-73
2023/09/16 01:42:29;;;;;;;0.40;0.40;;;11.40;99.90;;;;;;5110118;28;20049;-74
2023/09/16 01:44:55;;;;;;;0.43;0.43;;;11.40;99.90;;;;;;5108937;28;20044;-74
2023/09/16 01:47:21;;;;;;;;;;;11.30;99.90;;;;;;5109011;28;20096;-74
2023/09/16 01:49:47;;;;;;;0.30;0.30;;;11.30;99.90;;;;;;5107627;28;21109;-74
2023/09/16 01:52:13;;;;;;;0.40;0.40;;;11.30;99.90;;;;;;5109525;28;20090;-74
2023/09/16 01:54:38;;;;;;;0.45;0.45;;;11.30;99.90;;;;;;5109904;28;20048;-74
2023/09/16 01:57:04;;;;;;;0.40;0.40;;;11.20;99.90;;;;;;5109106;28;20040;-74
2023/09/16 01:59:30;;;;;;;0.30;0.30;;;11.20;99.90;;;;;;5107192;28;20043;-74
2023/09/16 02:01:55;;;;;;;0.30;0.30;;;11.20;99.90;;;;;;5109155;28;20035;-74
2023/09/16 02:04:21;;;;;;;0.30;0.30;;;11.20;99.90;;;;;;5108029;28;20047;-74
2023/09/16 02:06:47;;;;;;;0.32;0.32;;;11.10;99.90;;;;;;5109711;28;20075;-74
2023/09/16 02:09:13;;;;;;;0.30;0.30;;;11.10;99.90;;;;;;5109686;28;20555;-73
2023/09/16 02:11:39;;;;;;;0.30;0.30;;;11.20;99.90;;;;;;5108964;28;20094;-74
2023/09/16 02:14:05;;;;;;;0.43;0.43;;;11.20;99.90;;;;;;5108044;28;20083;-74
2023/09/16 02:16:31;;;;;;;;;;;11.10;99.90;;;;;;5109091;28;20040;-74
2023/09/16 02:18:57;;;;;;;0.40;0.40;;;11.10;99.90;;;;;;5108714;28;19988;-74
2023/09/16 02:21:22;;;;;;;0.40;0.40;;;11.10;99.90;;;;;;5110343;28;20044;-73
2023/09/16 02:23:48;;;;;;;0.40;0.40;;;11.10;99.90;;;;;;5113433;28;20112;-74
2023/09/16 02:26:14;;;;;;;0.55;0.55;;;11.10;99.90;;;;;;5111783;28;20023;-74
2023/09/16 02:28:40;;;;;;;0.40;0.40;;;11.10;99.90;;;;;;5112547;28;20032;-75
2023/09/16 02:31:09;;;;;;;0.30;0.30;;;11.00;99.90;;;;;;5111428;28;20446;-74
2023/09/16 02:33:36;;;;;;;0.40;0.40;;;11.00;99.90;;;;;;5104797;28;20065;-74
2023/09/16 02:36:02;;;;;;;0.40;0.40;;;11.00;99.90;;;;;;5111891;28;20047;-73
2023/09/16 02:38:28;;;;;;;0.30;0.30;;;10.90;99.90;;;;;;5110645;28;20080;-74
2023/09/16 02:40:53;;;;;;;0.30;0.30;;;11.00;99.90;;;;;;5113039;28;20486;-74
2023/09/16 02:43:19;;;;;;;0.40;0.40;;;11.00;99.90;;;;;;5112806;28;20047;-74
2023/09/16 02:45:45;;;;;;;0.30;0.30;;;11.00;99.90;;;;;;5112937;28;20169;-74
2023/09/16 02:48:10;;;;;;;0.47;0.47;;;10.90;99.90;;;;;;5112687;28;20058;-72
2023/09/16 02:50:38;;;;;;;0.50;0.50;;;10.80;99.90;;;;;;5112339;27;20039;-74
2023/09/16 02:53:04;;;;;;;0.50;0.50;;;10.80;99.90;;;;;;5112898;27;20047;-74
2023/09/16 02:55:31;;;;;;;0.40;0.40;;;10.80;99.90;;;;;;5113092;28;20047;-74
2023/09/16 02:57:59;;;;;;;0.40;0.40;;;10.70;99.90;;;;;;5104655;28;20136;-74
2023/09/16 03:00:24;;;;;;;0.40;0.40;;;10.70;99.90;;;;;;5111893;28;20490;-74
2023/09/16 03:02:50;;;;;;;0.30;0.30;;;10.70;99.90;;;;;;5111383;28;20046;-74
2023/09/16 03:05:16;;;;;;;0.40;0.40;;;10.60;99.90;;;;;;5113389;28;20036;-73
2023/09/16 03:07:44;;;;;;;0.40;0.40;;;10.60;99.90;;;;;;5112421;28;20493;-74
2023/09/16 03:10:10;;;;;;;0.40;0.40;;;10.60;99.90;;;;;;5104340;28;20053;-74
2023/09/16 03:12:36;;;;;;;0.30;0.30;;;10.60;99.90;;;;;;5112876;27;20036;-74
2023/09/16 03:15:02;;;;;;;0.20;0.20;;;10.50;99.90;;;;;;5110763;28;20290;-74
2023/09/16 03:17:29;;;;;;;0.30;0.30;;;10.50;99.90;;;;;;5111930;28;20449;-73
2023/09/16 03:19:55;;;;;;;0.50;0.50;;;10.50;99.90;;;;;;5112248;28;20440;-74
2023/09/16 03:22:20;;;;;;;0.30;0.30;;;10.50;99.90;;;;;;5110586;28;20055;-74
2023/09/16 03:24:48;;;;;;;0.30;0.30;;;10.50;99.90;;;;;;5112411;28;20050;-74
2023/09/16 03:27:13;;;;;;;0.30;0.30;;;10.50;99.90;;;;;;5110249;28;20042;-74
2023/09/16 03:29:39;;;;;;;0.50;0.50;;;10.40;99.90;;;;;;5112621;28;20048;-74
2023/09/16 03:32:05;;;;;;;0.30;0.30;;;10.40;99.90;;;;;;5112582;28;20078;-74
2023/09/16 03:34:31;;;;;;;0.40;0.40;;;10.40;99.90;;;;;;5093381;28;20047;-73
2023/09/16 03:36:56;;;;;;;0.30;0.30;;;10.50;99.90;;;;;;5112451;28;20122;-74
2023/09/16 03:39:23;;;;;;;0.50;0.50;;;10.50;99.90;;;;;;5109119;28;20048;-73
2023/09/16 03:41:49;;;;;;;0.40;0.40;;;10.40;99.90;;;;;;5110883;28;20146;-73
2023/09/16 03:44:15;;;;;;;0.50;0.50;;;10.40;99.90;;;;;;5111845;28;20126;-74
2023/09/16 03:46:41;;;;;;;0.40;0.40;;;10.40;99.90;;;;;;5111385;28;20482;-74
2023/09/16 03:49:07;;;;;;;0.43;0.43;;;10.40;99.90;;;;;;5112057;28;20138;-74
2023/09/16 03:51:35;;;;;;;0.35;0.35;;;10.40;99.90;;;;;;5110414;28;20119;-74
2023/09/16 03:54:01;;;;;;;0.40;0.40;;;10.30;99.90;;;;;;5112062;28;20374;-74
2023/09/16 03:56:26;;;;;;;0.40;0.40;;;10.30;99.90;;;;;;5110439;28;20052;-75
2023/09/16 03:58:52;;;;;;;0.40;0.40;;;10.30;99.90;;;;;;5112253;28;20039;-74
2023/09/16 04:01:18;;;;;;;0.20;0.20;;;10.30;99.90;;;;;;5111623;28;20171;-75
2023/09/16 04:03:43;;;;;;;0.32;0.32;;;10.20;99.90;;;;;;5108399;28;20504;-74
2023/09/16 04:06:09;;;;;;;0.52;0.52;;;10.20;99.90;;;;;;5105202;28;20075;-74
2023/09/16 04:08:36;;;;;;;0.50;0.50;;;10.20;99.90;;;;;;5111456;28;20047;-74
2023/09/16 04:11:02;;;;;;;0.40;0.40;;;10.20;99.90;;;;;;5111501;28;20047;-74
2023/09/16 04:13:28;;;;;;;0.40;0.40;;;10.20;99.90;;;;;;5109831;28;20088;-74
2023/09/16 04:15:54;;;;;;;0.40;0.40;;;10.20;99.90;;;;;;5108178;28;20436;-74
2023/09/16 04:18:20;;;;;;;0.30;0.30;;;10.10;99.90;;;;;;5110961;28;20040;-75
2023/09/16 04:20:50;;;;;;;0.40;0.40;;;10.10;99.90;;;;;;5107959;28;20047;-74
2023/09/16 04:23:16;;;;;;;0.40;0.40;;;10.10;99.90;;;;;;5111025;28;20405;-74
2023/09/16 04:25:42;;;;;;;0.40;0.40;;;10.10;99.90;;;;;;5109656;28;20055;-74
2023/09/16 04:28:09;;;;;;;0.43;0.43;;;10.10;99.90;;;;;;5109517;27;20047;-74
2023/09/16 04:30:45;;;;;;;0.40;0.40;;;10.10;99.90;;;;;;5108726;28;20096;-74
2023/09/16 04:33:11;;;;;;;0.50;0.50;;;10.00;99.90;;;;;;5109990;28;20054;-74
2023/09/16 04:35:43;;;;;;;0.45;0.45;;;10.10;99.90;;;;;;5111293;28;20414;-74
2023/09/16 04:38:09;;;;;;;0.30;0.30;;;10.10;99.90;;;;;;5109928;28;20043;-74
2023/09/16 04:40:35;;;;;;;0.30;0.30;;;10.00;99.90;;;;;;5108134;28;20051;-74
2023/09/16 04:43:03;;;;;;;0.45;0.45;;;10.00;99.90;;;;;;5111143;28;20087;-74
2023/09/16 04:45:29;;;;;;;0.47;0.47;;;10.00;99.90;;;;;;5109056;28;20047;-74
2023/09/16 04:47:56;;;;;;;0.40;0.40;;;10.00;99.90;;;;;;5110896;28;20040;-74
2023/09/16 04:50:22;;;;;;;0.40;0.40;;;10.00;99.90;;;;;;5104352;28;20059;-74
2023/09/16 04:52:48;;;;;;;0.40;0.40;;;10.00;99.90;;;;;;5107051;28;20371;-75
2023/09/16 04:55:14;;;;;;;0.40;0.40;;;10.00;99.90;;;;;;5103817;28;20413;-74
2023/09/16 04:57:40;;;;;;;0.30;0.30;;;10.00;99.90;;;;;;5110493;28;20050;-74
2023/09/16 05:00:06;;;;;;;;;;;10.00;99.90;;;;;;5109544;28;20043;-74
2023/09/16 05:02:33;;;;;;;0.50;0.50;;;9.90;99.90;;;;;;5106591;28;19934;-74
2023/09/16 05:05:00;;;;;;;0.30;0.30;;;9.90;99.90;;;;;;5107652;28;20047;-74
2023/09/16 05:07:27;;;;;;;0.43;0.43;;;9.90;99.90;;;;;;5108810;28;20050;-74
2023/09/16 05:09:53;;;;;;;0.60;0.60;;;9.90;99.90;;;;;;5109987;28;20382;-74
2023/09/16 05:12:19;;;;;;;0.35;0.35;;;9.80;99.90;;;;;;5107995;28;20054;-74
2023/09/16 05:14:46;;;;;;;0.50;0.50;;;9.80;99.90;;;;;;5110241;28;20036;-74
2023/09/16 05:17:12;;;;;;;0.30;0.30;;;9.80;99.90;;;;;;5109295;28;20047;-74
2023/09/16 05:19:37;;;;;;;0.45;0.45;;;9.80;99.90;;;;;;5107741;28;20035;-75
2023/09/16 05:22:04;;;;;;;0.40;0.40;;;9.80;99.90;;;;;;5104443;28;20059;-74
2023/09/16 05:24:33;;;;;;;;;;;9.90;99.90;;;;;;5110408;28;20051;-75
2023/09/16 05:26:59;;;;;;;0.32;0.32;;;9.90;99.90;;;;;;5110695;28;19930;-74
2023/09/16 05:29:25;;;;;;;0.40;0.40;;;9.90;99.90;;;;;;5109207;28;20070;-73
2023/09/16 05:31:53;;;;;;;0.43;0.43;;;10.00;99.90;;;;;;5109455;28;20405;-74
2023/09/16 05:34:18;;;;;;;0.47;0.47;;;10.00;99.90;;;;;;5109289;28;20055;-74
2023/09/16 05:36:44;;;;;;;0.40;0.40;;;10.00;99.90;;;;;;5110235;28;20096;-75
2023/09/16 05:39:10;;;;;;;0.47;0.47;;;10.00;99.90;;;;;;5109554;28;20035;-74
2023/09/16 05:41:36;;;;;;;0.50;0.50;;;10.00;99.90;;;;;;5108403;28;20440;-74
2023/09/16 05:44:01;;;;;;;0.45;0.45;;;10.00;99.90;;;;;;5091540;28;20404;-75
2023/09/16 05:46:27;;;;;;;0.40;0.40;;;10.00;99.90;;;;;;5109786;28;20048;-74
2023/09/16 05:49:06;;;;;;;0.45;0.45;;;10.10;99.90;;;;;;5110250;28;20128;-74
2023/09/16 05:51:33;;;;;;;0.50;0.50;;;10.10;99.90;;;;;;5108581;28;20051;-74
2023/09/16 05:53:59;;;;;;;0.40;0.40;;;10.10;99.90;;;;;;5108421;28;20055;-74
2023/09/16 05:56:24;;;;;;;0.50;0.50;;;10.20;99.90;;;;;;5109780;28;20110;-74
2023/09/16 05:58:50;;;;;;;0.30;0.30;;;10.20;99.90;;;;;;5112478;28;20177;-74
2023/09/16 06:01:16;;;;;;;0.35;0.35;;;10.30;99.90;;;;;;5111252;28;20504;-74
2023/09/16 06:03:41;;;;;;;0.40;0.40;;;10.40;99.90;;;;;;5111843;28;20105;-75
2023/09/16 06:06:07;;;;;;;0.50;0.50;;;10.40;99.90;;;;;;5113637;28;20043;-74
2023/09/16 06:08:33;;;;;;;0.40;0.40;;;10.50;99.90;;;;;;5112498;28;20043;-75
2023/09/16 06:10:59;;;;;;;0.30;0.30;;;10.60;99.90;;;;;;5111644;28;20162;-73
2023/09/16 06:13:25;;;;;;;0.50;0.50;;;10.70;99.90;;;;;;5112252;28;20043;-74
2023/09/16 06:15:51;;;;;;;0.40;0.40;;;10.70;99.90;;;;;;5112361;28;20051;-74
2023/09/16 06:18:17;;;;;;;0.40;0.40;;;10.80;99.90;;;;;;5095206;28;20724;-75
2023/09/16 06:20:43;;;;;;;0.40;0.40;;;10.90;99.90;;;;;;5113618;28;20043;-75
2023/09/16 06:23:09;;;;;;;0.30;0.30;;;11.00;99.90;;;;;;5111884;28;20457;-75
2023/09/16 06:25:35;;;;;;;0.68;0.68;;;11.10;99.90;;;;;;5112236;28;20044;-74
2023/09/16 06:28:01;;;;;;;;;;;11.20;99.90;;;;;;5113931;27;20669;-74
2023/09/16 06:30:26;;;;;;;0.30;0.30;;;11.30;99.90;;;;;;5112753;28;19931;-74
2023/09/16 06:32:53;;;;;;;0.38;0.38;;;11.50;99.90;;;;;;5113647;28;20800;-74
2023/09/16 06:35:19;;;;;;;0.30;0.30;;;11.70;99.90;;;;;;5112652;28;20529;-74
2023/09/16 06:37:44;;;;;;;0.30;0.30;;;11.80;99.90;;;;;;5111861;28;20691;-75
2023/09/16 06:40:11;;;;;;;0.40;0.40;;;12.00;99.90;;;;;;5106845;28;20051;-75
2023/09/16 06:42:36;;;;;;;0.40;0.40;;;12.10;99.90;;;;;;5107796;28;20481;-75
2023/09/16 06:45:02;;;;;;;0.50;0.50;;;12.30;99.90;;;;;;5113727;28;20051;-75
2023/09/16 06:47:28;;;;;;;0.38;0.38;;;12.40;99.90;;;;;;5111356;28;20436;-74
2023/09/16 06:49:55;;;;;;;0.30;0.30;;;12.50;99.90;;;;;;5111953;28;20039;-75
2023/09/16 06:52:26;;;;;;;0.40;0.40;;;12.70;99.90;;;;;;5113257;28;20556;-74
2023/09/16 06:54:52;;;;;;;0.20;0.20;;;12.90;99.90;;;;;;5112687;28;20581;-74
2023/09/16 06:57:18;;;;;;;0.20;0.20;;;13.00;99.90;;;;;;5112219;28;20100;-74
2023/09/16 06:59:47;;;;;;;0.30;0.30;;;13.10;99.90;;;;;;5110701;28;20056;-74
2023/09/16 07:02:14;;;;;;;0.35;0.35;;;13.30;99.90;;;;;;5113113;28;20116;-74
2023/09/16 07:04:45;;;;;;;0.22;0.22;;;13.30;99.90;;;;;;5113175;28;20042;-74
2023/09/16 07:07:11;;;;;;;0.30;0.30;;;13.50;99.90;;;;;;5112448;28;20047;-74
2023/09/16 07:09:37;;;;;;;0.40;0.40;;;13.60;99.90;;;;;;5111495;28;20507;-74
2023/09/16 07:12:05;;;;;;;0.20;0.20;;;13.70;99.90;;;;;;5111360;28;20127;-74
2023/09/16 07:14:31;;;;;;;0.22;0.22;;;13.90;99.90;;;;;;5105584;28;20048;-74
2023/09/16 07:16:57;;;;;;;0.40;0.40;;;13.90;99.90;;;;;;5110122;28;20040;-74
2023/09/16 07:19:23;;;;;;;0.35;0.35;;;14.10;99.90;;;;;;5113291;28;20067;-74
2023/09/16 07:21:48;;;;;;;0.65;0.65;;;14.10;99.90;;;;;;5112415;28;20708;-74
2023/09/16 07:24:14;;;;;;;;;;;14.30;99.90;;;;;;5110632;28;20083;-74
2023/09/16 07:26:43;;;;;;;0.50;0.50;;;14.30;99.90;;;;;;5106319;28;20339;-74
2023/09/16 07:29:10;;;;;;;0.30;0.30;;;14.40;99.90;;;;;;5112772;27;20058;-74
2023/09/16 07:31:35;;;;;;;;;;;14.50;99.90;;;;;;5111103;27;20040;-74
2023/09/16 07:34:01;;;;;;;0.50;0.50;;;14.60;99.90;;;;;;5112964;28;19920;-74
2023/09/16 07:36:27;;;;;;;0.40;0.40;;;14.70;99.90;;;;;;5109423;28;20176;-74
2023/09/16 07:38:52;;;;;;;0.52;0.52;;;14.90;99.90;;;;;;5111303;28;20039;-74
2023/09/16 07:41:18;;;;;;;1.08;0.57;;;15.00;99.90;;;;;;5111638;28;20596;-75
2023/09/16 07:43:44;;;;;;;0.50;0.50;;;15.10;99.90;;;;;;5111907;28;20798;-74
2023/09/16 07:46:09;;;;;;;;;;;15.20;99.90;;;;;;5112829;27;20057;-75
2023/09/16 07:48:35;;;;;;;0.30;0.30;;;15.40;99.90;;;;;;5108169;28;19931;-74
2023/09/16 07:51:01;;;;;;;;;;;15.40;99.90;;;;;;5111848;28;20434;-74
2023/09/16 07:53:26;;;;;;;0.60;0.60;;;15.50;99.90;;;;;;5111363;28;19923;-74
2023/09/16 07:55:52;;;;;;;0.73;0.73;;;15.60;99.90;;;;;;5111729;28;20636;-74
2023/09/16 07:58:18;;;;;;;;;;;15.80;99.90;;;;;;5110575;28;20481;-74
2023/09/16 08:00:43;;;;;;;0.20;0.20;;;15.90;99.90;;;;;;5110190;28;19930;-74
2023/09/16 08:03:09;;;;;;;;;;;16.00;99.90;;;;;;5110662;28;20039;-74
2023/09/16 08:05:35;;;;;;;0.63;0.63;;;16.10;99.90;;;;;;5111242;28;19931;-74
2023/09/16 08:08:02;;;;;;;;;;;16.20;99.90;;;;;;5111386;28;20035;-73
2023/09/16 08:10:28;;;;;;;0.52;0.52;;;16.30;99.90;;;;;;5109912;28;20304;-73
2023/09/16 08:12:53;;;;;;;;;;;16.40;99.90;;;;;;5109104;28;20105;-74
2023/09/16 08:15:19;;;;;;;1.33;1.08;;;16.50;99.90;;;;;;5108748;28;20373;-74
2023/09/16 08:17:44;;;;;;;;;;;16.60;99.90;;;;;;5086617;28;20055;-74
2023/09/16 08:20:10;;;;;;;0.40;0.40;;;16.70;99.90;;;;;;5084323;28;20022;-74
2023/09/16 08:22:36;;;;;;;;;;;16.90;99.90;;;;;;5101293;28;20052;-74
2023/09/16 08:25:03;;;;;;;0.30;0.30;;;17.00;99.90;;;;;;5102278;28;19924;-74
2023/09/16 08:27:29;;;;;;;0.50;0.50;;;17.10;99.90;;;;;;5105291;27;20040;-74
2023/09/16 08:29:54;;;;;;;;;;;17.30;99.90;;;;;;5105958;28;20074;-74
2023/09/16 08:32:22;;;;;;;0.40;0.40;;;17.40;99.90;;;;;;5103268;27;20801;-74
2023/09/16 08:34:50;;;;;;;0.28;0.28;;;17.40;99.90;;;;;;5109207;28;20134;-74
2023/09/16 08:37:16;;;;;;;0.22;0.22;;;17.60;99.90;;;;;;5109655;28;20047;-74
2023/09/16 08:39:42;;;;;;;0.20;0.20;;;17.70;99.90;;;;;;5105813;28;20039;-74
2023/09/16 08:42:14;;;;;;;;;;;17.80;99.90;;;;;;5102681;28;20482;-74
2023/09/16 08:44:44;;;;;;;0.32;0.32;;;17.90;99.90;;;;;;5108209;28;19931;-74
2023/09/16 08:47:15;;;;;;;0.30;0.30;;;18.00;99.90;;;;;;5103973;28;20080;-74
2023/09/16 08:49:50;;;;;;;0.63;0.50;;;18.10;99.90;;;;;;5108025;28;20055;-75
2023/09/16 08:52:17;;;;;;;0.20;0.20;;;18.20;99.90;;;;;;5107730;28;20043;-74
2023/09/16 08:54:45;;;;;;;0.63;0.63;;;;;;;;;;5106758;28;20230;-74
2023/09/16 08:57:12;;;;;;;0.30;0.30;;;18.50;99.90;;;;;;5102634;27;20047;-75
2023/09/16 08:59:40;;;;;;;0.52;0.52;;;18.50;99.90;;;;;;5105181;28;20047;-75
2023/09/16 09:02:10;;;;;;;0.30;0.30;;;18.60;99.90;;;;;;5108282;27;20040;-75
2023/09/16 09:04:38;;;;;;;0.20;0.20;;;18.70;99.90;;;;;;5109765;28;20043;-75
2023/09/16 09:07:05;;;;;;;0.20;0.20;;;18.80;99.90;;;;;;5107183;28;20175;-75
2023/09/16 09:09:31;;;;;;;0.30;0.30;;;18.90;99.90;;;;;;5101447;28;20142;-75
2023/09/16 09:11:57;;;;;;;;;;;19.00;99.90;;;;;;5089747;28;20590;-75
2023/09/16 09:14:23;;;;;;;0.40;0.40;;;19.10;99.90;;;;;;5102513;28;20014;-75
2023/09/16 09:16:51;;;;;;;0.47;0.47;;;19.20;99.90;;;;;;5105506;28;20051;-75
2023/09/16 09:19:20;;;;;;;0.43;0.28;;;19.30;99.90;;;;;;5096126;28;20177;-75
2023/09/16 09:21:47;;;;;;;0.40;0.40;;;19.30;99.90;;;;;;5106542;28;20139;-75
2023/09/16 09:24:13;;;;;;;0.65;0.65;;;19.50;99.90;;;;;;5106893;28;20757;-75
2023/09/16 09:26:38;;;;;;;;;;;19.60;99.90;;;;;;5104089;28;20041;-75
2023/09/16 09:29:09;;;;;;;0.40;0.40;;;19.60;99.90;;;;;;5104019;28;19928;-75
2023/09/16 09:31:35;;;;;;;0.30;0.25;;;19.70;99.90;;;;;;5101307;28;20047;-75
2023/09/16 09:34:01;;;;;;;1.15;1.05;;;19.80;99.90;;;;;;5104470;28;20059;-75
2023/09/16 09:36:27;;;;;;;1.35;1.25;;;19.90;99.90;;;;;;5101357;28;20047;-75
2023/09/16 09:38:56;;;;;;;;;;;20.00;99.90;;;;;;5106764;28;20039;-75
2023/09/16 09:41:21;;;;;;;0.38;0.38;;;20.10;99.90;;;;;;5104569;28;19930;-75
2023/09/16 09:43:49;;;;;;;0.65;0.63;;;20.20;99.90;;;;;;5101172;28;20047;-76
2023/09/16 09:46:15;;;;;;;0.82;0.60;;;20.30;99.90;;;;;;5099970;28;20048;-74
2023/09/16 09:48:40;;;;;;;0.40;0.40;;;20.30;99.90;;;;;;5105508;28;20505;-75
2023/09/16 09:51:09;;;;;;;0.30;0.30;;;20.40;99.90;;;;;;5105813;28;20081;-75
2023/09/16 09:53:36;;;;;;;0.20;0.20;;;20.50;99.90;;;;;;5103290;28;20043;-75
2023/09/16 09:56:02;;;;;;;0.20;0.20;;;20.60;99.90;;;;;;5108771;28;20039;-75
2023/09/16 09:58:30;;;;;;;0.47;0.47;;;20.60;99.90;;;;;;5109551;28;20047;-75
2023/09/16 10:00:55;;;;;;;0.40;0.40;;;20.70;99.90;;;;;;5100296;28;20048;-74
2023/09/16 10:03:23;;;;;;;0.68;0.68;;;20.80;99.90;;;;;;5107830;28;20095;-75
2023/09/16 10:05:49;;;;;;;0.10;0.10;;;20.90;99.90;;;;;;5107794;28;20553;-74
2023/09/16 10:08:15;;;;;;;0.52;0.52;;;20.90;99.90;;;;;;5102356;28;20027;-75
2023/09/16 10:10:41;;;;;;;0.30;0.30;;;21.00;99.90;;;;;;5104134;28;20058;-75
2023/09/16 10:13:07;;;;;;;0.30;0.30;;;21.00;99.90;;;;;;5102266;28;20762;-74
2023/09/16 10:15:36;;;;;;;0.30;0.30;;;21.10;99.90;;;;;;5100909;28;20047;-74
2023/09/16 10:18:07;;;;;;;0.65;0.65;;;21.20;99.90;;;;;;5101048;28;20717;-74
2023/09/16 10:20:37;;;;;;;0.30;0.30;;;21.30;99.90;;;;;;5098631;28;20405;-74
2023/09/16 10:23:03;;;;;;;0.20;0.20;;;21.30;99.90;;;;;;5099610;28;20062;-74
2023/09/16 10:25:29;;;;;;;0.20;0.20;;;21.30;99.90;;;;;;5106107;28;20124;-74
2023/09/16 10:28:04;;;;;;;0.45;0.45;;;21.40;99.90;;;;;;5107078;28;20084;-74
2023/09/16 10:30:31;;;;;;;0.30;0.30;;;21.40;99.90;;;;;;5101515;28;20050;-74
2023/09/16 10:33:08;;;;;;;0.30;0.30;;;21.50;99.90;;;;;;5105344;28;20075;-74
2023/09/16 10:35:37;;;;;;;0.30;0.30;;;21.60;99.90;;;;;;5101131;28;20377;-74
2023/09/16 10:38:05;;;;;;;0.30;0.30;;;21.70;99.90;;;;;;5106586;28;20389;-74
2023/09/16 10:40:31;;;;;;;0.30;0.30;;;21.80;99.90;;;;;;5108127;28;20074;-73
2023/09/16 10:42:58;;;;;;;0.77;0.65;;;21.90;99.90;;;;;;5108073;28;20614;-74
2023/09/16 10:45:25;;;;;;;0.40;0.40;;;21.90;99.90;;;;;;5111248;28;20079;-74
2023/09/16 10:47:52;;;;;;;0.45;0.45;;;22.00;99.90;;;;;;5106241;27;20070;-74
2023/09/16 10:50:20;;;;;;;1.02;0.90;;;22.00;99.90;;;;;;5108918;28;20082;-74
2023/09/16 10:53:01;;;;;;;0.77;0.77;;;22.10;99.90;;;;;;5105082;28;20504;-75
2023/09/16 10:55:40;;;;;;;1.00;0.90;;;22.20;99.90;;;;;;5112245;28;20109;-74
2023/09/16 10:58:30;;;;;;;1.77;0.40;;;22.20;99.90;;;;;;5109474;28;20050;-74
2023/09/16 11:00:58;;;;;;;0.45;0.30;;;22.30;99.90;;;;;;5098316;28;20048;-73
2023/09/16 11:03:31;;;;;;;0.40;0.40;;;22.30;99.90;;;;;;5101543;28;20044;-75
2023/09/16 11:06:03;;;;;;;0.30;0.30;;;22.40;99.90;;;;;;5111194;28;20044;-74
2023/09/16 11:08:29;;;;;;;0.50;0.50;;;22.40;99.90;;;;;;5102014;28;20040;-74
2023/09/16 11:10:58;;;;;;;0.40;0.40;;;22.40;99.90;;;;;;5106645;28;20075;-74
2023/09/16 11:13:28;;;;;;;0.38;0.38;;;22.50;99.90;;;;;;5103279;28;20055;-74
2023/09/16 11:15:58;;;;;;;0.68;0.68;;;22.50;99.90;;;;;;5107262;28;20055;-74
2023/09/16 11:18:24;;;;;;;1.90;0.77;;;22.70;99.90;;;;;;5103078;28;20547;-74
2023/09/16 11:20:51;;;;;;;0.52;0.52;;;22.60;99.90;;;;;;5108255;28;20126;-75
2023/09/16 11:23:17;;;;;;;0.50;0.50;;;22.60;99.90;;;;;;5102134;28;20131;-75
2023/09/16 11:25:43;;;;;;;0.45;0.45;;;22.60;99.90;;;;;;5108955;28;20642;-74
2023/09/16 11:28:13;;;;;;;0.35;0.30;;;22.70;99.90;;;;;;5110083;28;20058;-74
2023/09/16 11:30:45;;;;;;;0.35;0.35;;;22.80;99.90;;;;;;5112695;28;20086;-74
2023/09/16 11:33:33;;;;;;;0.30;0.30;;;22.90;99.90;;;;;;5100714;28;20054;-74
2023/09/16 11:36:18;;;;;;;0.20;0.20;;;23.00;99.90;;;;;;5100437;28;20055;-75
2023/09/16 11:39:15;;;;;;;0.30;0.30;;;23.00;99.90;;;;;;5103218;28;20401;-75
2023/09/16 11:41:40;;;;;;;0.80;0.73;;;23.20;99.90;;;;;;5110040;28;20039;-74
2023/09/16 11:44:07;;;;;;;0.35;0.35;;;23.30;99.90;;;;;;5106567;28;20361;-75
2023/09/16 11:46:34;;;;;;;0.57;0.50;;;23.30;99.90;;;;;;5101050;28;20056;-74
2023/09/16 11:49:03;;;;;;;0.60;0.60;;;23.30;99.90;;;;;;5110712;28;20058;-74
2023/09/16 11:51:30;;;;;;;1.63;1.55;;;23.30;99.90;;;;;;5101787;28;20901;-74
2023/09/16 11:53:56;;;;;;;0.35;0.35;;;23.40;99.90;;;;;;5105511;28;20039;-75
2023/09/16 11:56:25;;;;;;;0.35;0.35;;;23.60;99.90;;;;;;5104992;28;20044;-74
2023/09/16 11:58:54;;;;;;;0.40;0.40;;;23.70;99.90;;;;;;5107991;28;20070;-74
2023/09/16 12:01:22;;;;;;;0.77;0.77;;;23.60;99.90;;;;;;5090404;28;20051;-74
2023/09/16 12:03:49;;;;;;;0.30;0.30;;;23.60;99.90;;;;;;5106374;28;20417;-74
2023/09/16 12:06:17;;;;;;;0.45;0.45;;;23.50;99.90;;;;;;5096553;28;20047;-74
2023/09/16 12:08:45;;;;;;;0.30;0.30;;;23.60;99.90;;;;;;5102860;28;20082;-73
2023/09/16 12:11:11;;;;;;;0.17;0.17;;;23.60;99.90;;;;;;5104586;28;20071;-74
2023/09/16 12:13:39;;;;;;;0.73;0.73;;;23.70;99.90;;;;;;5107137;28;20078;-74
2023/09/16 12:16:06;;;;;;;0.47;0.47;;;23.60;99.90;;;;;;5102957;27;20092;-74
2023/09/16 12:18:31;;;;;;;0.20;0.20;;;23.60;99.90;;;;;;5106566;28;20040;-73
2023/09/16 12:20:57;;;;;;;0.17;0.17;;;23.60;99.90;;;;;;5104275;28;20086;-74
2023/09/16 12:23:27;;;;;;;0.35;0.35;;;23.80;99.90;;;;;;5100615;28;20525;-74
2023/09/16 12:25:54;;;;;;;0.20;0.20;;;24.00;99.90;;;;;;5099762;28;20047;-74
2023/09/16 12:28:22;;;;;;;0.25;0.25;;;24.10;99.90;;;;;;5102109;28;20047;-74
2023/09/16 12:30:51;;;;;;;0.57;0.57;;;24.30;99.90;;;;;;5106563;28;20040;-75
2023/09/16 12:33:19;;;;;;;0.28;0.20;;;24.30;99.90;;;;;;5093455;28;20076;-74
2023/09/16 12:35:48;;;;;;;0.75;0.75;;;24.50;99.90;;;;;;5106502;28;20131;-75
2023/09/16 12:38:17;;;;;;;0.20;0.20;;;24.60;99.90;;;;;;5103672;28;20533;-74
2023/09/16 12:40:44;;;;;;;0.65;0.60;;;24.60;99.90;;;;;;5106765;27;20485;-74
2023/09/16 12:43:10;;;;;;;0.30;0.30;;;24.60;99.90;;;;;;5105088;28;20055;-75
2023/09/16 12:45:38;;;;;;;0.20;0.20;;;24.70;99.90;;;;;;5101752;28;20047;-75
2023/09/16 12:48:04;;;;;;;0.25;0.25;;;24.60;99.90;;;;;;5097400;28;20040;-75
2023/09/16 12:50:30;;;;;;;0.22;0.22;;;24.70;99.90;;;;;;5100954;28;20446;-74
2023/09/16 12:52:56;;;;;;;0.22;0.22;;;24.70;99.90;;;;;;5103059;28;20048;-74